createdAt,value
2022-11-12T00:00:13.908Z,62.10
2022-11-12T00:01:12.955Z,62.40
2022-11-12T00:02:13.055Z,62.30
2022-11-12T00:03:13.335Z,62.40
2022-11-12T00:04:13.478Z,62.50
2022-11-12T00:05:13.435Z,62.30
2022-11-12T00:06:13.642Z,62.20
2022-11-12T00:07:13.611Z,62.00
2022-11-12T00:08:13.655Z,62.10
2022-11-12T00:09:13.561Z,62.00
2022-11-12T00:10:13.731Z,62.10
2022-11-12T00:11:13.838Z,62.00
2022-11-12T00:12:13.779Z,61.80
2022-11-12T00:13:14.258Z,61.80
2022-11-12T00:14:13.570Z,61.70
2022-11-12T00:15:13.381Z,61.60
2022-11-12T00:16:13.642Z,61.70
2022-11-12T00:17:13.796Z,62.00
2022-11-12T00:18:14.047Z,61.80
2022-11-12T00:19:13.129Z,61.60
2022-11-12T00:20:13.265Z,61.20
2022-11-12T00:21:13.693Z,61.30
2022-11-12T00:22:13.608Z,61.30
2022-11-12T00:23:13.591Z,61.10
2022-11-12T00:24:13.481Z,61.20
2022-11-12T00:25:13.657Z,61.20
2022-11-12T00:26:13.609Z,61.20
2022-11-12T00:27:13.414Z,61.20
2022-11-12T00:28:13.448Z,61.20
2022-11-12T00:29:13.505Z,61.10
2022-11-12T00:30:13.399Z,61.20
2022-11-12T00:31:13.820Z,61.50
2022-11-12T00:32:13.655Z,61.40
2022-11-12T00:33:13.608Z,61.40
2022-11-12T00:34:13.595Z,61.30
2022-11-12T00:35:14.260Z,61.50
2022-11-12T00:36:13.772Z,61.20
2022-11-12T00:37:14.058Z,61.40
2022-11-12T00:38:12.969Z,61.40
2022-11-12T00:39:13.484Z,61.30
2022-11-12T00:40:13.431Z,61.30
2022-11-12T00:41:13.540Z,61.30
2022-11-12T00:42:13.684Z,61.50
2022-11-12T00:43:14.023Z,61.30
2022-11-12T00:44:13.019Z,60.90
2022-11-12T00:45:12.997Z,61.00
2022-11-12T00:46:13.006Z,60.80
2022-11-12T00:47:12.984Z,60.90
2022-11-12T00:48:13.302Z,60.80
2022-11-12T00:49:13.161Z,61.20
2022-11-12T00:50:13.226Z,61.20
2022-11-12T00:51:13.219Z,61.20
2022-11-12T00:52:13.451Z,61.90
2022-11-12T00:53:13.730Z,62.40
2022-11-12T00:54:14.268Z,63.40
2022-11-12T00:55:13.426Z,64.00
2022-11-12T00:56:13.777Z,64.10
2022-11-12T00:57:13.671Z,64.20
2022-11-12T00:58:13.892Z,64.10
2022-11-12T00:59:13.010Z,64.20
2022-11-12T01:00:13.072Z,63.80
2022-11-12T01:01:13.295Z,63.30
2022-11-12T01:02:13.554Z,63.10
2022-11-12T01:03:13.968Z,63.00
2022-11-12T01:04:13.133Z,62.40
2022-11-12T01:05:13.108Z,62.00
2022-11-12T01:06:12.937Z,61.50
2022-11-12T01:07:13.234Z,61.00
2022-11-12T01:08:13.716Z,60.90
2022-11-12T01:09:13.959Z,61.30
2022-11-12T01:10:13.216Z,61.90
2022-11-12T01:11:13.255Z,61.60
2022-11-12T01:12:13.288Z,61.50
2022-11-12T01:13:13.224Z,61.60
2022-11-12T01:14:13.100Z,61.60
2022-11-12T01:15:13.164Z,61.70
2022-11-12T01:16:18.183Z,61.50
2022-11-12T01:17:13.079Z,61.60
2022-11-12T01:18:13.150Z,61.20
2022-11-12T01:19:13.145Z,61.50
2022-11-12T01:20:13.121Z,61.90
2022-11-12T01:21:13.251Z,61.90
2022-11-12T01:22:13.129Z,61.50
2022-11-12T01:23:13.043Z,61.30
2022-11-12T01:24:13.067Z,61.30
2022-11-12T01:25:13.004Z,61.10
2022-11-12T01:26:12.891Z,61.20
2022-11-12T01:27:12.888Z,62.00
2022-11-12T01:28:18.412Z,62.70
2022-11-12T01:29:13.469Z,62.70
2022-11-12T01:30:13.768Z,62.50
2022-11-12T01:31:13.976Z,62.80
2022-11-12T01:32:13.091Z,63.60
2022-11-12T01:33:13.333Z,64.40
2022-11-12T01:34:13.591Z,64.60
2022-11-12T01:35:13.825Z,64.60
2022-11-12T01:36:13.847Z,64.50
2022-11-12T01:37:14.034Z,64.40
2022-11-12T01:38:12.940Z,64.30
2022-11-12T01:39:12.863Z,64.50
2022-11-12T01:40:13.005Z,64.60
2022-11-12T01:41:13.178Z,65.40
2022-11-12T01:42:13.358Z,66.30
2022-11-12T01:43:12.828Z,66.90
2022-11-12T01:44:13.899Z,67.20
2022-11-12T01:45:12.985Z,66.90
2022-11-12T01:46:13.124Z,67.40
2022-11-12T01:47:13.436Z,67.70
2022-11-12T01:48:20.029Z,67.50
2022-11-12T01:49:13.950Z,67.30
2022-11-12T01:50:13.739Z,67.10
2022-11-12T01:51:14.332Z,67.20
2022-11-12T01:52:13.921Z,67.40
2022-11-12T01:53:12.882Z,67.90
2022-11-12T01:54:13.007Z,68.50
2022-11-12T01:55:13.210Z,68.10
2022-11-12T01:56:13.270Z,68.70
2022-11-12T01:57:14.077Z,69.10
2022-11-12T01:58:13.841Z,68.90
2022-11-12T01:59:14.639Z,69.10
2022-11-12T02:00:14.080Z,69.10
2022-11-12T02:01:13.903Z,69.00
2022-11-12T02:02:13.539Z,69.00
2022-11-12T02:03:13.995Z,68.60
2022-11-12T02:04:13.876Z,68.60
2022-11-12T02:05:14.249Z,68.60
2022-11-12T02:06:14.133Z,68.60
2022-11-12T02:07:13.982Z,68.30
2022-11-12T02:08:13.344Z,68.00
2022-11-12T02:09:13.659Z,67.20
2022-11-12T02:10:14.475Z,67.40
2022-11-12T02:11:13.532Z,67.40
2022-11-12T02:12:13.762Z,67.80
2022-11-12T02:13:13.902Z,68.10
2022-11-12T02:14:12.947Z,68.80
2022-11-12T02:15:18.191Z,68.90
2022-11-12T02:16:13.870Z,69.10
2022-11-12T02:17:14.321Z,69.00
2022-11-12T02:18:14.000Z,68.70
2022-11-12T02:19:13.617Z,68.20
2022-11-12T02:20:14.544Z,68.10
2022-11-12T02:21:14.258Z,68.60
2022-11-12T02:22:14.328Z,69.20
2022-11-12T02:23:13.758Z,69.40
2022-11-12T02:24:14.813Z,69.90
2022-11-12T02:25:19.550Z,69.90
2022-11-12T02:26:14.574Z,70.20
2022-11-12T02:27:13.820Z,70.20
2022-11-12T02:28:15.899Z,70.40
2022-11-12T02:29:13.247Z,70.60
2022-11-12T02:30:13.460Z,70.50
2022-11-12T02:31:14.317Z,70.50
2022-11-12T02:32:14.129Z,70.60
2022-11-12T02:33:13.693Z,70.50
2022-11-12T02:34:15.553Z,70.80
2022-11-12T02:35:14.193Z,70.60
2022-11-12T02:36:13.148Z,70.90
2022-11-12T02:37:13.811Z,71.10
2022-11-12T02:38:19.473Z,70.90
2022-11-12T02:39:13.720Z,70.60
2022-11-12T02:40:14.490Z,70.70
2022-11-12T02:41:14.692Z,70.80
2022-11-12T02:42:14.361Z,70.60
2022-11-12T02:43:13.498Z,70.40
2022-11-12T02:44:13.638Z,70.40
2022-11-12T02:45:13.541Z,70.50
2022-11-12T02:46:13.792Z,70.50
2022-11-12T02:47:13.798Z,70.10
2022-11-12T02:48:18.068Z,70.10
2022-11-12T02:49:14.000Z,70.50
2022-11-12T02:50:13.364Z,70.70
2022-11-12T02:51:16.560Z,70.80
2022-11-12T02:52:13.835Z,71.10
2022-11-12T02:53:14.293Z,70.90
2022-11-12T02:54:13.535Z,70.90
2022-11-12T02:55:13.690Z,70.90
2022-11-12T02:56:14.140Z,70.90
2022-11-12T02:57:13.401Z,70.80
2022-11-12T02:58:13.379Z,70.90
2022-11-12T02:59:13.820Z,70.90
2022-11-12T03:00:13.956Z,70.60
2022-11-12T03:01:14.070Z,70.20
2022-11-12T03:02:13.851Z,69.70
2022-11-12T03:03:25.141Z,69.30
2022-11-12T03:04:14.427Z,68.80
2022-11-12T03:05:15.115Z,68.30
2022-11-12T03:06:13.150Z,68.10
2022-11-12T03:07:13.201Z,68.20
2022-11-12T03:08:13.109Z,68.90
2022-11-12T03:09:13.109Z,68.80
2022-11-12T03:10:13.003Z,68.90
2022-11-12T03:11:13.241Z,69.30
2022-11-12T03:12:13.215Z,69.80
2022-11-12T03:13:18.191Z,70.50
2022-11-12T03:14:13.404Z,70.90
2022-11-12T03:15:13.668Z,70.60
2022-11-12T03:16:13.898Z,70.20
2022-11-12T03:17:12.956Z,70.30
2022-11-12T03:18:18.041Z,69.90
2022-11-12T03:19:13.019Z,69.80
2022-11-12T03:20:13.064Z,70.00
2022-11-12T03:21:17.983Z,70.60
2022-11-12T03:22:12.778Z,70.80
2022-11-12T03:23:14.046Z,70.80
2022-11-12T03:24:13.074Z,70.70
2022-11-12T03:25:13.160Z,70.50
2022-11-12T03:26:13.228Z,70.20
2022-11-12T03:27:14.522Z,69.70
2022-11-12T03:28:13.589Z,69.00
2022-11-12T03:29:13.806Z,68.70
2022-11-12T03:30:14.061Z,68.20
2022-11-12T03:31:12.851Z,67.80
2022-11-12T03:32:13.718Z,67.60
2022-11-12T03:33:13.837Z,67.30
2022-11-12T03:34:13.856Z,67.30
2022-11-12T03:35:13.895Z,67.00
2022-11-12T03:36:13.172Z,67.00
2022-11-12T03:37:13.491Z,66.80
2022-11-12T03:38:13.429Z,66.60
2022-11-12T03:39:13.289Z,66.40
2022-11-12T03:40:13.126Z,66.50
2022-11-12T03:41:14.299Z,66.20
2022-11-12T03:42:13.190Z,66.60
2022-11-12T03:43:13.319Z,66.40
2022-11-12T03:44:13.294Z,66.30
2022-11-12T03:45:13.240Z,66.40
2022-11-12T03:46:13.150Z,65.80
2022-11-12T03:47:13.177Z,65.10
2022-11-12T03:48:13.469Z,64.80
2022-11-12T03:49:14.361Z,64.60
2022-11-12T03:50:13.315Z,64.30
2022-11-12T03:51:12.770Z,64.40
2022-11-12T03:52:13.691Z,64.50
2022-11-12T03:53:13.682Z,64.40
2022-11-12T03:54:13.919Z,64.10
2022-11-12T03:55:13.062Z,63.80
2022-11-12T03:56:13.287Z,63.90
2022-11-12T03:57:13.507Z,63.60
2022-11-12T03:58:13.649Z,63.60
2022-11-12T03:59:14.028Z,63.80
2022-11-12T04:00:13.113Z,63.70
2022-11-12T04:01:13.259Z,63.90
2022-11-12T04:02:13.318Z,63.80
2022-11-12T04:03:13.216Z,64.10
2022-11-12T04:04:18.184Z,64.20
2022-11-12T04:05:13.420Z,64.30
2022-11-12T04:06:13.351Z,64.30
2022-11-12T04:07:13.329Z,64.60
2022-11-12T04:08:13.208Z,64.80
2022-11-12T04:09:13.552Z,65.20
2022-11-12T04:10:13.583Z,65.60
2022-11-12T04:11:13.587Z,65.90
2022-11-12T04:12:13.742Z,66.20
2022-11-12T04:13:13.817Z,66.60
2022-11-12T04:14:13.850Z,66.60
2022-11-12T04:15:13.979Z,66.80
2022-11-12T04:16:13.088Z,66.70
2022-11-12T04:17:14.441Z,66.50
2022-11-12T04:18:13.482Z,66.40
2022-11-12T04:19:13.438Z,66.20
2022-11-12T04:20:13.339Z,66.20
2022-11-12T04:21:13.241Z,66.30
2022-11-12T04:22:13.270Z,66.60
2022-11-12T04:23:13.415Z,67.00
2022-11-12T04:24:13.284Z,67.50
2022-11-12T04:25:13.273Z,67.90
2022-11-12T04:26:13.160Z,68.20
2022-11-12T04:27:13.059Z,69.10
2022-11-12T04:28:12.992Z,69.10
2022-11-12T04:29:12.982Z,70.80
2022-11-12T04:30:12.931Z,71.90
2022-11-12T04:31:18.087Z,71.70
2022-11-12T04:32:13.243Z,71.50
2022-11-12T04:33:13.609Z,71.50
2022-11-12T04:34:13.630Z,70.90
2022-11-12T04:35:13.620Z,70.80
2022-11-12T04:36:13.846Z,70.80
2022-11-12T04:37:14.063Z,70.90
2022-11-12T04:38:13.358Z,70.60
2022-11-12T04:39:13.349Z,70.40
2022-11-12T04:40:13.252Z,69.90
2022-11-12T04:41:13.297Z,69.30
2022-11-12T04:42:13.277Z,68.60
2022-11-12T04:43:13.152Z,68.00
2022-11-12T04:44:13.201Z,68.10
2022-11-12T04:45:13.155Z,68.10
2022-11-12T04:46:13.158Z,68.40
2022-11-12T04:47:13.544Z,68.40
2022-11-12T04:48:13.638Z,68.30
2022-11-12T04:49:13.696Z,68.20
2022-11-12T04:50:13.705Z,67.90
2022-11-12T04:51:13.703Z,67.40
2022-11-12T04:52:13.733Z,67.10
2022-11-12T04:53:14.058Z,66.90
2022-11-12T04:54:13.279Z,66.80
2022-11-12T04:55:13.274Z,67.00
2022-11-12T04:56:13.344Z,67.20
2022-11-12T04:57:13.624Z,67.50
2022-11-12T04:58:13.753Z,67.70
2022-11-12T04:59:13.922Z,67.70
2022-11-12T05:00:13.210Z,67.80
2022-11-12T05:01:13.481Z,68.00
2022-11-12T05:02:13.054Z,67.90
2022-11-12T05:03:13.382Z,68.00
2022-11-12T05:04:13.352Z,68.10
2022-11-12T05:05:46.198Z,68.20
2022-11-12T05:06:13.180Z,68.20
2022-11-12T05:07:13.081Z,67.90
2022-11-12T05:08:12.968Z,68.00
2022-11-12T05:09:43.522Z,67.60
2022-11-12T05:10:13.391Z,67.50
2022-11-12T05:11:13.532Z,67.50
2022-11-12T05:12:13.553Z,67.80
2022-11-12T05:13:13.751Z,68.80
2022-11-12T05:14:18.550Z,69.50
2022-11-12T05:15:13.560Z,69.60
2022-11-12T05:16:13.582Z,69.50
2022-11-12T05:17:13.533Z,69.20
2022-11-12T05:18:13.456Z,69.10
2022-11-12T05:19:34.803Z,69.10
2022-11-12T05:20:13.745Z,69.30
2022-11-12T05:21:13.645Z,69.50
2022-11-12T05:22:27.214Z,69.70
2022-11-12T05:23:14.014Z,69.60
2022-11-12T05:24:41.980Z,69.60
2022-11-12T05:25:13.523Z,69.80
2022-11-12T05:26:13.670Z,69.50
2022-11-12T05:27:13.531Z,69.50
2022-11-12T05:28:13.542Z,69.10
2022-11-12T05:29:13.816Z,69.00
2022-11-12T05:30:13.890Z,69.30
2022-11-12T05:31:13.835Z,69.90
2022-11-12T05:32:13.933Z,70.40
2022-11-12T05:33:12.963Z,70.40
2022-11-12T05:34:13.161Z,70.80
2022-11-12T05:35:13.274Z,70.80
2022-11-12T05:36:13.540Z,70.60
2022-11-12T05:37:13.695Z,71.10
2022-11-12T05:38:13.991Z,71.40
2022-11-12T05:39:13.248Z,71.30
2022-11-12T05:40:13.155Z,71.40
2022-11-12T05:41:18.754Z,71.30
2022-11-12T05:42:14.279Z,71.30
2022-11-12T05:43:13.840Z,71.50
2022-11-12T05:44:13.940Z,71.20
2022-11-12T05:45:12.910Z,71.20
2022-11-12T05:46:13.075Z,71.30
2022-11-12T05:47:13.165Z,71.80
2022-11-12T05:48:13.131Z,72.60
2022-11-12T05:49:13.370Z,72.80
2022-11-12T05:50:13.407Z,72.90
2022-11-12T05:51:14.041Z,73.10
2022-11-12T05:52:13.468Z,73.30
2022-11-12T05:53:13.435Z,74.50
2022-11-12T05:54:13.780Z,74.90
2022-11-12T05:55:13.605Z,75.30
2022-11-12T05:56:13.894Z,75.50
2022-11-12T05:57:12.742Z,75.80
2022-11-12T05:58:13.617Z,76.10
2022-11-12T05:59:13.574Z,76.00
2022-11-12T06:00:13.652Z,75.70
2022-11-12T06:01:13.718Z,76.00
2022-11-12T06:02:13.788Z,75.90
2022-11-12T06:03:13.877Z,76.00
2022-11-12T06:04:13.798Z,76.30
2022-11-12T06:05:13.682Z,76.10
2022-11-12T06:06:13.055Z,76.60
2022-11-12T06:07:13.373Z,77.40
2022-11-12T06:08:13.320Z,77.70
2022-11-12T06:09:13.254Z,78.20
2022-11-12T06:10:19.170Z,77.90
2022-11-12T06:11:13.424Z,77.90
2022-11-12T06:12:13.434Z,77.60
2022-11-12T06:13:13.380Z,78.10
2022-11-12T06:14:18.524Z,78.50
2022-11-12T06:15:13.625Z,78.30
2022-11-12T06:16:13.768Z,78.10
2022-11-12T06:17:13.678Z,78.50
2022-11-12T06:18:13.576Z,78.70
2022-11-12T06:19:13.589Z,78.70
2022-11-12T06:20:13.804Z,78.60
2022-11-12T06:21:14.162Z,78.60
2022-11-12T06:22:13.053Z,78.50
2022-11-12T06:23:13.127Z,78.30
2022-11-12T06:24:13.626Z,78.50
2022-11-12T06:25:13.651Z,78.50
2022-11-12T06:26:13.603Z,78.90
2022-11-12T06:27:13.792Z,79.40
2022-11-12T06:28:13.797Z,79.50
2022-11-12T06:29:13.751Z,79.30
2022-11-12T06:30:13.629Z,79.40
2022-11-12T06:31:13.645Z,79.50
2022-11-12T06:32:13.611Z,79.90
2022-11-12T06:33:13.589Z,80.00
2022-11-12T06:34:13.595Z,80.00
2022-11-12T06:35:13.498Z,79.90
2022-11-12T06:36:13.460Z,80.20
2022-11-12T06:37:13.444Z,79.90
2022-11-12T06:38:13.703Z,79.80
2022-11-12T06:39:13.886Z,79.70
2022-11-12T06:40:13.863Z,79.50
2022-11-12T06:41:13.738Z,79.30
2022-11-12T06:42:13.897Z,79.00
2022-11-12T06:43:12.935Z,78.70
2022-11-12T06:44:14.680Z,78.80
2022-11-12T06:45:13.730Z,78.90
2022-11-12T06:46:13.790Z,78.40
2022-11-12T06:47:13.778Z,78.00
2022-11-12T06:48:13.967Z,77.50
2022-11-12T06:49:12.974Z,77.30
2022-11-12T06:50:12.872Z,77.00
2022-11-12T06:51:13.944Z,76.90
2022-11-12T06:52:16.545Z,77.30
2022-11-12T06:53:12.959Z,77.40
2022-11-12T06:54:12.933Z,77.50
2022-11-12T06:55:13.044Z,77.60
2022-11-12T06:56:12.981Z,77.30
2022-11-12T06:57:12.834Z,76.70
2022-11-12T06:58:14.155Z,76.60
2022-11-12T06:59:13.137Z,76.40
2022-11-12T07:00:13.326Z,76.10
2022-11-12T07:01:13.585Z,75.80
2022-11-12T07:02:13.791Z,75.70
2022-11-12T07:03:13.656Z,75.50
2022-11-12T07:04:13.600Z,75.20
2022-11-12T07:05:15.886Z,75.30
2022-11-12T07:06:12.860Z,75.40
2022-11-12T07:07:13.880Z,75.60
2022-11-12T07:08:12.789Z,76.00
2022-11-12T07:09:13.784Z,76.10
2022-11-12T07:10:13.647Z,75.90
2022-11-12T07:11:13.673Z,75.80
2022-11-12T07:12:13.601Z,75.50
2022-11-12T07:13:13.659Z,75.20
2022-11-12T07:14:13.630Z,74.90
2022-11-12T07:15:13.565Z,74.50
2022-11-12T07:16:13.569Z,74.30
2022-11-12T07:17:13.603Z,74.50
2022-11-12T07:18:13.585Z,74.60
2022-11-12T07:19:13.458Z,74.60
2022-11-12T07:20:13.383Z,74.70
2022-11-12T07:21:13.298Z,74.80
2022-11-12T07:22:13.536Z,75.20
2022-11-12T07:23:13.413Z,75.10
2022-11-12T07:24:13.602Z,75.10
2022-11-12T07:25:13.665Z,75.30
2022-11-12T07:26:13.761Z,75.30
2022-11-12T07:27:13.971Z,75.70
2022-11-12T07:28:17.925Z,76.20
2022-11-12T07:29:24.945Z,76.00
2022-11-12T07:30:13.251Z,76.10
2022-11-12T07:31:13.069Z,76.20
2022-11-12T07:32:13.174Z,76.30
2022-11-12T07:33:13.287Z,75.80
2022-11-12T07:34:13.377Z,75.50
2022-11-12T07:35:13.427Z,75.30
2022-11-12T07:36:13.875Z,75.10
2022-11-12T07:37:13.879Z,74.80
2022-11-12T07:38:13.842Z,74.70
2022-11-12T07:39:13.768Z,74.30
2022-11-12T07:40:13.702Z,74.10
2022-11-12T07:41:13.648Z,73.90
2022-11-12T07:42:13.573Z,73.50
2022-11-12T07:43:13.740Z,73.00
2022-11-12T07:44:13.841Z,72.90
2022-11-12T07:45:14.412Z,72.30
2022-11-12T07:46:13.586Z,72.20
2022-11-12T07:47:13.870Z,72.00
2022-11-12T07:48:14.145Z,71.80
2022-11-12T07:49:13.047Z,72.20
2022-11-12T07:50:13.215Z,72.00
2022-11-12T07:51:13.714Z,71.90
2022-11-12T07:52:13.859Z,72.10
2022-11-12T07:53:13.659Z,72.00
2022-11-12T07:54:13.571Z,72.10
2022-11-12T07:55:13.560Z,72.40
2022-11-12T07:56:13.516Z,72.60
2022-11-12T07:57:13.382Z,73.90
2022-11-12T07:58:13.428Z,74.40
2022-11-12T07:59:13.340Z,74.70
2022-11-12T08:00:13.394Z,74.90
2022-11-12T08:01:13.564Z,74.90
2022-11-12T08:02:13.531Z,75.20
2022-11-12T08:03:13.731Z,75.20
2022-11-12T08:04:13.896Z,75.30
2022-11-12T08:05:17.553Z,75.00
2022-11-12T08:06:13.292Z,74.40
2022-11-12T08:07:13.549Z,74.10
2022-11-12T08:08:13.584Z,74.20
2022-11-12T08:09:13.574Z,74.10
2022-11-12T08:10:13.415Z,74.10
2022-11-12T08:11:13.274Z,74.10
2022-11-12T08:12:13.174Z,74.20
2022-11-12T08:13:13.161Z,74.50
2022-11-12T08:14:13.188Z,74.30
2022-11-12T08:15:13.064Z,74.30
2022-11-12T08:16:12.932Z,73.90
2022-11-12T08:17:12.903Z,74.20
2022-11-12T08:18:13.012Z,74.60
2022-11-12T08:19:12.985Z,73.80
2022-11-12T08:20:13.008Z,73.20
2022-11-12T08:21:13.247Z,73.10
2022-11-12T08:22:13.154Z,72.90
2022-11-12T08:23:13.093Z,72.80
2022-11-12T08:24:13.151Z,72.40
2022-11-12T08:25:13.218Z,71.60
2022-11-12T08:26:13.234Z,72.10
2022-11-12T08:27:13.310Z,72.00
2022-11-12T08:28:13.217Z,71.60
2022-11-12T08:29:14.406Z,72.10
2022-11-12T08:30:13.242Z,71.70
2022-11-12T08:31:13.238Z,71.30
2022-11-12T08:32:13.062Z,70.70
2022-11-12T08:33:13.026Z,69.90
2022-11-12T08:34:15.083Z,69.70
2022-11-12T08:35:13.381Z,69.80
2022-11-12T08:36:13.279Z,69.90
2022-11-12T08:37:13.499Z,69.80
2022-11-12T08:38:13.486Z,70.00
2022-11-12T08:39:13.454Z,70.20
2022-11-12T08:40:13.459Z,69.70
2022-11-12T08:41:13.429Z,70.00
2022-11-12T08:42:13.384Z,69.50
2022-11-12T08:43:13.723Z,69.40
2022-11-12T08:44:13.668Z,69.30
2022-11-12T08:45:13.608Z,69.30
2022-11-12T08:46:13.636Z,69.00
2022-11-12T08:47:13.711Z,69.40
2022-11-12T08:48:13.597Z,69.10
2022-11-12T08:49:13.788Z,68.30
2022-11-12T08:50:14.037Z,67.90
2022-11-12T08:51:12.997Z,67.60
2022-11-12T08:52:12.895Z,67.40
2022-11-12T08:53:12.908Z,66.70
2022-11-12T08:54:13.215Z,66.60
2022-11-12T08:55:13.204Z,66.40
2022-11-12T08:56:13.138Z,66.00
2022-11-12T08:57:13.053Z,65.80
2022-11-12T08:58:12.984Z,64.90
2022-11-12T08:59:13.135Z,64.20
2022-11-12T09:00:13.125Z,64.20
2022-11-12T09:01:13.172Z,63.60
2022-11-12T09:02:13.088Z,63.60
2022-11-12T09:03:13.006Z,63.00
2022-11-12T09:04:13.119Z,62.90
2022-11-12T09:05:13.591Z,62.10
2022-11-12T09:06:15.055Z,61.80
2022-11-12T09:07:43.404Z,61.70
2022-11-12T09:08:13.325Z,61.70
2022-11-12T09:10:13.208Z,61.50
2022-11-12T09:11:13.505Z,61.80
2022-11-12T09:12:19.113Z,61.30
2022-11-12T09:13:13.789Z,61.40
2022-11-12T09:14:13.757Z,60.90
2022-11-12T09:15:36.895Z,60.70
2022-11-12T09:16:13.907Z,60.20
2022-11-12T09:17:13.056Z,60.10
2022-11-12T09:18:13.072Z,60.50
2022-11-12T09:19:13.288Z,60.80
2022-11-12T09:20:13.288Z,60.80
2022-11-12T09:21:13.572Z,61.50
2022-11-12T09:22:13.651Z,62.00
2022-11-12T09:23:13.669Z,61.40
2022-11-12T09:24:13.914Z,61.30
2022-11-12T09:25:13.050Z,61.10
2022-11-12T09:26:13.007Z,61.50
2022-11-12T09:27:13.127Z,61.40
2022-11-12T09:28:13.602Z,61.40
2022-11-12T09:29:13.939Z,61.50
2022-11-12T09:30:12.863Z,61.60
2022-11-12T09:31:13.748Z,61.70
2022-11-12T09:32:13.860Z,61.40
2022-11-12T09:33:13.824Z,59.80
2022-11-12T09:34:13.710Z,57.50
2022-11-12T09:35:13.815Z,54.50
2022-11-12T09:36:13.818Z,53.50
2022-11-12T09:37:13.940Z,52.60
2022-11-12T09:38:12.857Z,51.20
2022-11-12T09:39:13.693Z,50.10
2022-11-12T09:40:13.771Z,49.90
2022-11-12T09:41:14.754Z,49.50
2022-11-12T09:42:13.795Z,49.50
2022-11-12T09:43:13.905Z,48.50
2022-11-12T09:44:12.906Z,47.00
2022-11-12T09:45:12.822Z,46.10
2022-11-12T09:46:27.061Z,43.60
2022-11-12T09:47:12.979Z,43.50
2022-11-12T09:48:13.507Z,41.20
2022-11-12T09:49:13.731Z,40.30
2022-11-12T09:50:13.639Z,41.80
2022-11-12T09:51:13.632Z,41.30
2022-11-12T09:52:13.584Z,42.60
2022-11-12T09:53:13.467Z,42.20
2022-11-12T09:54:13.433Z,42.60
2022-11-12T09:55:13.575Z,42.70
2022-11-12T09:56:13.470Z,42.70
2022-11-12T09:57:14.194Z,41.70
2022-11-12T09:58:18.436Z,41.90
2022-11-12T09:59:13.394Z,42.70
2022-11-12T10:00:13.923Z,42.20
2022-11-12T10:01:12.892Z,42.30
2022-11-12T10:02:12.879Z,42.10
2022-11-12T10:03:13.857Z,40.40
2022-11-12T10:04:13.941Z,40.00
2022-11-12T10:05:12.931Z,40.80
2022-11-12T10:06:18.141Z,40.10
2022-11-12T10:07:13.674Z,39.70
2022-11-12T10:08:13.590Z,39.40
2022-11-12T10:09:13.865Z,39.30
2022-11-12T10:10:13.093Z,39.00
2022-11-12T10:11:13.213Z,38.70
2022-11-12T10:12:13.447Z,38.50
2022-11-12T10:13:13.278Z,38.00
2022-11-12T10:14:13.143Z,37.70
2022-11-12T10:15:13.020Z,37.70
2022-11-12T10:16:13.157Z,39.50
2022-11-12T10:17:13.243Z,40.30
2022-11-12T10:18:13.270Z,40.40
2022-11-12T10:19:13.283Z,41.30
2022-11-12T10:20:13.201Z,42.20
2022-11-12T10:21:13.767Z,42.90
2022-11-12T10:22:13.604Z,43.10
2022-11-12T10:23:13.606Z,43.10
2022-11-12T10:24:13.989Z,43.10
2022-11-12T10:25:13.242Z,42.70
2022-11-12T10:26:13.247Z,41.70
2022-11-12T10:27:13.369Z,41.00
2022-11-12T10:28:13.419Z,40.90
2022-11-12T10:29:13.405Z,40.50
2022-11-12T10:30:13.347Z,41.00
2022-11-12T10:31:13.338Z,41.10
2022-11-12T10:32:13.665Z,42.30
2022-11-12T10:33:13.682Z,41.70
2022-11-12T10:34:13.796Z,40.60
2022-11-12T10:35:13.740Z,39.80
2022-11-12T10:36:14.040Z,39.80
2022-11-12T10:37:12.949Z,39.20
2022-11-12T10:38:12.729Z,41.90
2022-11-12T10:39:13.637Z,41.10
2022-11-12T10:40:13.566Z,39.80
2022-11-12T10:41:13.679Z,39.10
2022-11-12T10:42:14.013Z,39.70
2022-11-12T10:43:13.061Z,39.80
2022-11-12T10:44:13.167Z,40.10
2022-11-12T10:45:13.425Z,41.20
2022-11-12T10:46:13.453Z,41.60
2022-11-12T10:47:35.171Z,42.10
2022-11-12T10:48:13.304Z,41.70
2022-11-12T10:49:29.939Z,40.90
2022-11-12T10:50:30.516Z,42.30
2022-11-12T10:51:22.088Z,43.10
2022-11-12T10:52:13.346Z,44.00
2022-11-12T10:53:13.347Z,44.10
2022-11-12T10:54:13.330Z,44.40
2022-11-12T10:55:18.509Z,44.50
2022-11-12T10:56:33.981Z,45.20
2022-11-12T10:57:12.986Z,44.80
2022-11-12T10:58:12.896Z,44.40
2022-11-12T10:59:38.028Z,42.70
2022-11-12T11:00:13.221Z,42.50
2022-11-12T11:01:13.217Z,41.80
2022-11-12T11:02:22.009Z,42.50
2022-11-12T11:03:13.230Z,42.50
2022-11-12T11:04:13.207Z,42.80
2022-11-12T11:05:13.113Z,44.30
2022-11-12T11:07:19.014Z,44.30
2022-11-12T11:08:18.243Z,44.80
2022-11-12T11:09:13.120Z,45.00
2022-11-12T11:10:40.684Z,44.60
2022-11-12T11:11:14.070Z,44.50
2022-11-12T11:12:20.346Z,43.40
2022-11-12T11:13:13.518Z,43.80
2022-11-12T11:14:39.443Z,43.60
2022-11-12T11:15:13.890Z,43.90
2022-11-12T11:16:12.844Z,43.70
2022-11-12T11:17:13.820Z,43.60
2022-11-12T11:18:43.870Z,43.50
2022-11-12T11:19:13.835Z,44.00
2022-11-12T11:20:13.985Z,43.40
2022-11-12T11:21:12.893Z,43.10
2022-11-12T11:22:38.684Z,43.20
2022-11-12T11:23:17.602Z,43.00
2022-11-12T11:24:13.735Z,43.40
2022-11-12T11:25:13.841Z,44.10
2022-11-12T11:26:13.779Z,43.60
2022-11-12T11:27:40.579Z,42.60
2022-11-12T11:28:22.091Z,43.60
2022-11-12T11:29:13.233Z,44.60
2022-11-12T11:30:32.733Z,42.80
2022-11-12T11:31:13.939Z,41.90
2022-11-12T11:32:13.246Z,41.30
2022-11-12T11:33:13.410Z,42.00
2022-11-12T11:34:13.331Z,42.60
2022-11-12T11:35:13.621Z,43.30
2022-11-12T11:36:13.649Z,43.90
2022-11-12T11:37:13.765Z,43.80
2022-11-12T11:38:18.982Z,44.30
2022-11-12T11:39:12.961Z,44.30
2022-11-12T11:40:13.193Z,45.00
2022-11-12T11:41:13.260Z,44.50
2022-11-12T11:43:13.093Z,45.40
2022-11-12T11:44:19.160Z,43.50
2022-11-12T11:45:13.153Z,44.00
2022-11-12T11:46:13.253Z,43.50
2022-11-12T11:47:18.489Z,41.70
2022-11-12T11:48:14.687Z,41.50
2022-11-12T11:49:13.773Z,40.70
2022-11-12T11:50:13.742Z,41.10
2022-11-12T11:51:13.869Z,39.10
2022-11-12T11:52:13.724Z,38.60
2022-11-12T11:53:13.572Z,37.80
2022-11-12T11:54:13.791Z,38.50
2022-11-12T11:55:13.818Z,38.50
2022-11-12T11:56:13.749Z,39.50
2022-11-12T11:57:13.678Z,39.80
2022-11-12T11:58:13.557Z,38.90
2022-11-12T11:59:14.617Z,38.40
2022-11-12T12:00:13.513Z,39.60
2022-11-12T12:01:19.458Z,40.30
2022-11-12T12:02:13.768Z,39.90
2022-11-12T12:03:14.132Z,40.50
2022-11-12T12:04:13.121Z,39.40
2022-11-12T12:05:13.062Z,38.70
2022-11-12T12:06:13.087Z,39.30
2022-11-12T12:07:13.331Z,38.10
2022-11-12T12:08:13.773Z,37.40
2022-11-12T12:09:13.742Z,37.10
2022-11-12T12:10:13.841Z,36.40
2022-11-12T12:11:12.752Z,36.90
2022-11-12T12:12:13.977Z,36.50
2022-11-12T12:13:13.058Z,35.90
2022-11-12T12:14:13.005Z,36.70
2022-11-12T12:15:12.999Z,37.80
2022-11-12T12:16:18.365Z,39.80
2022-11-12T12:17:13.539Z,39.80
2022-11-12T12:18:13.541Z,40.10
2022-11-12T12:19:18.636Z,41.10
2022-11-12T12:20:14.795Z,41.30
2022-11-12T12:21:13.713Z,41.50
2022-11-12T12:22:13.678Z,41.70
2022-11-12T12:23:13.657Z,41.70
2022-11-12T12:24:13.710Z,41.70
2022-11-12T12:25:13.777Z,41.80
2022-11-12T12:26:14.186Z,41.90
2022-11-12T12:27:13.502Z,41.80
2022-11-12T12:28:13.671Z,41.10
2022-11-12T12:29:13.700Z,40.60
2022-11-12T12:30:13.954Z,40.90
2022-11-12T12:31:12.894Z,40.40
2022-11-12T12:32:13.069Z,41.30
2022-11-12T12:33:13.672Z,41.70
2022-11-12T12:34:13.653Z,40.90
2022-11-12T12:35:13.677Z,40.30
2022-11-12T12:36:13.754Z,40.60
2022-11-12T12:37:13.916Z,41.30
2022-11-12T12:38:18.348Z,41.60
2022-11-12T12:39:13.783Z,41.70
2022-11-12T12:40:13.632Z,42.00
2022-11-12T12:41:13.649Z,42.20
2022-11-12T12:42:13.626Z,42.30
2022-11-12T12:43:13.528Z,42.20
2022-11-12T12:44:13.520Z,42.80
2022-11-12T12:45:13.654Z,42.30
2022-11-12T12:46:13.736Z,41.90
2022-11-12T12:47:13.834Z,41.50
2022-11-12T12:48:13.989Z,41.40
2022-11-12T12:49:13.109Z,41.40
2022-11-12T12:50:13.060Z,42.00
2022-11-12T12:51:13.049Z,42.20
2022-11-12T12:52:13.472Z,42.10
2022-11-12T12:53:13.597Z,43.10
2022-11-12T12:54:13.574Z,43.70
2022-11-12T12:55:13.794Z,43.80